sensor_id;sensor_type;location;lat;lon;timestamp;temperature;humidity
15156;DHT22;7678;50.058;8.306;2023-06-10T00:02:09;21.00;86.60
15156;DHT22;7678;50.058;8.306;2023-06-10T00:04:47;20.90;87.10
15156;DHT22;7678;50.058;8.306;2023-06-10T00:07:35;20.90;87.70
15156;DHT22;7678;50.058;8.306;2023-06-10T00:10:18;20.80;87.80
15156;DHT22;7678;50.058;8.306;2023-06-10T00:12:56;20.80;88.20
15156;DHT22;7678;50.058;8.306;2023-06-10T00:15:48;20.60;88.50
15156;DHT22;7678;50.058;8.306;2023-06-10T00:18:28;20.80;88.40
15156;DHT22;7678;50.058;8.306;2023-06-10T00:21:15;20.80;89.20
15156;DHT22;7678;50.058;8.306;2023-06-10T00:23:49;20.70;89.10
15156;DHT22;7678;50.058;8.306;2023-06-10T00:26:48;20.80;89.20
15156;DHT22;7678;50.058;8.306;2023-06-10T00:29:29;20.70;88.90
15156;DHT22;7678;50.058;8.306;2023-06-10T00:31:59;20.70;89.30
15156;DHT22;7678;50.058;8.306;2023-06-10T00:34:28;20.60;89.80
15156;DHT22;7678;50.058;8.306;2023-06-10T00:37:22;20.70;89.50
15156;DHT22;7678;50.058;8.306;2023-06-10T00:39:53;20.60;90.00
15156;DHT22;7678;50.058;8.306;2023-06-10T00:42:40;20.60;89.40
15156;DHT22;7678;50.058;8.306;2023-06-10T00:45:09;20.70;89.40
15156;DHT22;7678;50.058;8.306;2023-06-10T00:47:41;20.60;88.90
15156;DHT22;7678;50.058;8.306;2023-06-10T00:50:17;20.60;89.60
15156;DHT22;7678;50.058;8.306;2023-06-10T00:52:56;20.60;88.40
15156;DHT22;7678;50.058;8.306;2023-06-10T00:55:35;20.70;88.80
15156;DHT22;7678;50.058;8.306;2023-06-10T00:58:31;20.70;88.00
15156;DHT22;7678;50.058;8.306;2023-06-10T01:01:20;20.60;87.70
15156;DHT22;7678;50.058;8.306;2023-06-10T01:03:53;20.60;87.30
15156;DHT22;7678;50.058;8.306;2023-06-10T01:06:52;20.50;87.80
15156;DHT22;7678;50.058;8.306;2023-06-10T01:09:41;20.50;88.20
15156;DHT22;7678;50.058;8.306;2023-06-10T01:12:49;20.50;88.00
15156;DHT22;7678;50.058;8.306;2023-06-10T01:15:34;20.50;86.80
15156;DHT22;7678;50.058;8.306;2023-06-10T01:18:18;20.50;87.30
15156;DHT22;7678;50.058;8.306;2023-06-10T01:20:50;20.50;87.80
15156;DHT22;7678;50.058;8.306;2023-06-10T01:23:30;20.30;87.40
15156;DHT22;7678;50.058;8.306;2023-06-10T01:26:09;20.40;86.80
15156;DHT22;7678;50.058;8.306;2023-06-10T01:28:48;20.40;86.90
15156;DHT22;7678;50.058;8.306;2023-06-10T01:31:35;20.40;86.90
15156;DHT22;7678;50.058;8.306;2023-06-10T01:34:33;20.30;86.00
15156;DHT22;7678;50.058;8.306;2023-06-10T01:37:18;20.30;86.60
15156;DHT22;7678;50.058;8.306;2023-06-10T01:39:52;20.30;86.60
15156;DHT22;7678;50.058;8.306;2023-06-10T01:42:30;20.30;85.50
15156;DHT22;7678;50.058;8.306;2023-06-10T01:45:00;20.20;85.80
15156;DHT22;7678;50.058;8.306;2023-06-10T01:48:00;20.30;85.60
15156;DHT22;7678;50.058;8.306;2023-06-10T01:50:31;20.30;85.60
15156;DHT22;7678;50.058;8.306;2023-06-10T01:53:06;20.20;84.80
15156;DHT22;7678;50.058;8.306;2023-06-10T01:55:40;20.10;84.70
15156;DHT22;7678;50.058;8.306;2023-06-10T01:58:15;20.10;84.90
15156;DHT22;7678;50.058;8.306;2023-06-10T02:00:45;20.00;84.30
15156;DHT22;7678;50.058;8.306;2023-06-10T02:03:14;20.10;84.70
15156;DHT22;7678;50.058;8.306;2023-06-10T02:05:44;20.10;83.70
15156;DHT22;7678;50.058;8.306;2023-06-10T02:08:20;20.10;83.90
15156;DHT22;7678;50.058;8.306;2023-06-10T02:11:02;20.10;83.50
15156;DHT22;7678;50.058;8.306;2023-06-10T02:13:46;20.10;84.80
15156;DHT22;7678;50.058;8.306;2023-06-10T02:16:22;20.10;83.40
15156;DHT22;7678;50.058;8.306;2023-06-10T02:19:00;20.10;84.40
15156;DHT22;7678;50.058;8.306;2023-06-10T02:21:37;20.00;83.20
15156;DHT22;7678;50.058;8.306;2023-06-10T02:24:10;19.90;83.70
15156;DHT22;7678;50.058;8.306;2023-06-10T02:26:48;19.80;84.40
15156;DHT22;7678;50.058;8.306;2023-06-10T02:29:28;19.70;84.30
15156;DHT22;7678;50.058;8.306;2023-06-10T02:32:05;19.70;84.60
15156;DHT22;7678;50.058;8.306;2023-06-10T02:34:46;19.70;85.50
15156;DHT22;7678;50.058;8.306;2023-06-10T02:37:27;19.50;85.20
15156;DHT22;7678;50.058;8.306;2023-06-10T02:40:03;19.50;84.50
15156;DHT22;7678;50.058;8.306;2023-06-10T02:42:52;19.40;85.70
15156;DHT22;7678;50.058;8.306;2023-06-10T02:45:20;19.30;85.70
15156;DHT22;7678;50.058;8.306;2023-06-10T02:47:56;19.30;86.20
15156;DHT22;7678;50.058;8.306;2023-06-10T02:50:38;19.20;86.70
15156;DHT22;7678;50.058;8.306;2023-06-10T02:53:09;19.20;86.10
15156;DHT22;7678;50.058;8.306;2023-06-10T02:55:52;19.20;87.10
15156;DHT22;7678;50.058;8.306;2023-06-10T02:58:41;19.10;86.70
15156;DHT22;7678;50.058;8.306;2023-06-10T03:01:41;19.10;87.20
15156;DHT22;7678;50.058;8.306;2023-06-10T03:04:32;19.20;86.90
15156;DHT22;7678;50.058;8.306;2023-06-10T03:07:36;19.20;85.90
15156;DHT22;7678;50.058;8.306;2023-06-10T03:10:17;19.10;86.00
15156;DHT22;7678;50.058;8.306;2023-06-10T03:13:06;19.00;86.30
15156;DHT22;7678;50.058;8.306;2023-06-10T03:16:11;19.00;86.80
15156;DHT22;7678;50.058;8.306;2023-06-10T03:19:02;19.10;86.60
15156;DHT22;7678;50.058;8.306;2023-06-10T03:21:44;19.10;88.20
15156;DHT22;7678;50.058;8.306;2023-06-10T03:24:42;19.00;88.00
15156;DHT22;7678;50.058;8.306;2023-06-10T03:27:20;18.90;90.00
15156;DHT22;7678;50.058;8.306;2023-06-10T03:29:51;18.80;88.10
15156;DHT22;7678;50.058;8.306;2023-06-10T03:32:44;18.70;88.70
15156;DHT22;7678;50.058;8.306;2023-06-10T03:35:18;18.70;90.20
15156;DHT22;7678;50.058;8.306;2023-06-10T03:37:50;18.80;90.20
15156;DHT22;7678;50.058;8.306;2023-06-10T03:40:25;18.60;90.10
15156;DHT22;7678;50.058;8.306;2023-06-10T03:43:04;18.70;90.50
15156;DHT22;7678;50.058;8.306;2023-06-10T03:45:38;18.60;90.30
15156;DHT22;7678;50.058;8.306;2023-06-10T03:48:15;18.60;90.20
15156;DHT22;7678;50.058;8.306;2023-06-10T03:50:45;18.60;90.90
15156;DHT22;7678;50.058;8.306;2023-06-10T03:53:15;18.70;91.20
15156;DHT22;7678;50.058;8.306;2023-06-10T03:55:49;18.60;90.90
15156;DHT22;7678;50.058;8.306;2023-06-10T03:58:32;18.60;91.20
15156;DHT22;7678;50.058;8.306;2023-06-10T04:01:14;18.70;90.90
15156;DHT22;7678;50.058;8.306;2023-06-10T04:04:03;18.80;91.40
15156;DHT22;7678;50.058;8.306;2023-06-10T04:06:46;18.60;92.10
15156;DHT22;7678;50.058;8.306;2023-06-10T04:09:17;18.80;91.70
15156;DHT22;7678;50.058;8.306;2023-06-10T04:12:01;18.60;92.20
15156;DHT22;7678;50.058;8.306;2023-06-10T04:14:44;18.60;92.50
15156;DHT22;7678;50.058;8.306;2023-06-10T04:17:16;18.70;93.00
15156;DHT22;7678;50.058;8.306;2023-06-10T04:19:55;18.70;92.90
15156;DHT22;7678;50.058;8.306;2023-06-10T04:22:26;18.70;92.80
15156;DHT22;7678;50.058;8.306;2023-06-10T04:25:03;18.70;93.70
15156;DHT22;7678;50.058;8.306;2023-06-10T04:27:42;18.70;94.00
15156;DHT22;7678;50.058;8.306;2023-06-10T04:30:22;18.60;94.30
15156;DHT22;7678;50.058;8.306;2023-06-10T04:32:56;18.70;94.70
15156;DHT22;7678;50.058;8.306;2023-06-10T04:35:29;18.70;93.60
15156;DHT22;7678;50.058;8.306;2023-06-10T04:38:04;18.90;93.90
15156;DHT22;7678;50.058;8.306;2023-06-10T04:40:46;19.00;93.00
15156;DHT22;7678;50.058;8.306;2023-06-10T04:43:19;19.20;93.00
15156;DHT22;7678;50.058;8.306;2023-06-10T04:45:50;19.40;92.60
15156;DHT22;7678;50.058;8.306;2023-06-10T04:48:20;19.40;92.70
15156;DHT22;7678;50.058;8.306;2023-06-10T04:51:11;19.60;91.50
15156;DHT22;7678;50.058;8.306;2023-06-10T04:53:41;19.70;92.50
15156;DHT22;7678;50.058;8.306;2023-06-10T04:56:27;19.80;91.10
15156;DHT22;7678;50.058;8.306;2023-06-10T04:58:59;20.00;90.50
15156;DHT22;7678;50.058;8.306;2023-06-10T05:01:30;20.00;90.40
15156;DHT22;7678;50.058;8.306;2023-06-10T05:04:09;20.20;88.80
15156;DHT22;7678;50.058;8.306;2023-06-10T05:06:40;20.30;90.20
15156;DHT22;7678;50.058;8.306;2023-06-10T05:09:13;20.30;89.10
15156;DHT22;7678;50.058;8.306;2023-06-10T05:11:53;20.40;87.70
15156;DHT22;7678;50.058;8.306;2023-06-10T05:14:42;20.50;87.90
15156;DHT22;7678;50.058;8.306;2023-06-10T05:17:12;20.60;86.90
15156;DHT22;7678;50.058;8.306;2023-06-10T05:19:44;20.70;87.30
15156;DHT22;7678;50.058;8.306;2023-06-10T05:22:25;20.70;87.60
15156;DHT22;7678;50.058;8.306;2023-06-10T05:24:57;20.80;87.50
15156;DHT22;7678;50.058;8.306;2023-06-10T05:27:29;20.80;87.90
15156;DHT22;7678;50.058;8.306;2023-06-10T05:29:59;20.80;86.20
15156;DHT22;7678;50.058;8.306;2023-06-10T05:32:38;21.00;87.70
15156;DHT22;7678;50.058;8.306;2023-06-10T05:35:13;21.00;88.00
15156;DHT22;7678;50.058;8.306;2023-06-10T05:38:06;21.00;87.40
15156;DHT22;7678;50.058;8.306;2023-06-10T05:40:38;21.10;86.50
15156;DHT22;7678;50.058;8.306;2023-06-10T05:43:07;21.20;88.90
15156;DHT22;7678;50.058;8.306;2023-06-10T05:45:39;21.30;87.80
15156;DHT22;7678;50.058;8.306;2023-06-10T05:48:09;21.40;87.60
15156;DHT22;7678;50.058;8.306;2023-06-10T05:50:39;21.50;88.40
15156;DHT22;7678;50.058;8.306;2023-06-10T05:53:11;21.60;89.50
15156;DHT22;7678;50.058;8.306;2023-06-10T05:55:44;21.60;88.70
15156;DHT22;7678;50.058;8.306;2023-06-10T05:58:15;21.70;88.30
15156;DHT22;7678;50.058;8.306;2023-06-10T06:00:43;21.90;85.50
15156;DHT22;7678;50.058;8.306;2023-06-10T06:03:15;21.90;86.20
15156;DHT22;7678;50.058;8.306;2023-06-10T06:05:43;21.90;85.70
15156;DHT22;7678;50.058;8.306;2023-06-10T06:08:18;22.10;84.80
15156;DHT22;7678;50.058;8.306;2023-06-10T06:10:47;22.10;85.50
15156;DHT22;7678;50.058;8.306;2023-06-10T06:13:16;22.10;82.60
15156;DHT22;7678;50.058;8.306;2023-06-10T06:15:45;22.10;84.30
15156;DHT22;7678;50.058;8.306;2023-06-10T06:18:13;22.20;85.60
15156;DHT22;7678;50.058;8.306;2023-06-10T06:20:42;22.10;84.30
15156;DHT22;7678;50.058;8.306;2023-06-10T06:23:12;22.20;83.50
15156;DHT22;7678;50.058;8.306;2023-06-10T06:25:43;22.10;83.80
15156;DHT22;7678;50.058;8.306;2023-06-10T06:28:14;22.20;84.30
15156;DHT22;7678;50.058;8.306;2023-06-10T06:30:46;22.30;82.30
15156;DHT22;7678;50.058;8.306;2023-06-10T06:33:14;22.30;82.20
15156;DHT22;7678;50.058;8.306;2023-06-10T06:35:43;22.40;82.40
15156;DHT22;7678;50.058;8.306;2023-06-10T06:38:17;22.50;81.30
15156;DHT22;7678;50.058;8.306;2023-06-10T06:40:47;22.60;82.30
15156;DHT22;7678;50.058;8.306;2023-06-10T06:43:16;22.70;84.00
15156;DHT22;7678;50.058;8.306;2023-06-10T06:45:45;22.80;82.50
15156;DHT22;7678;50.058;8.306;2023-06-10T06:48:14;22.70;82.40
15156;DHT22;7678;50.058;8.306;2023-06-10T06:50:44;22.70;81.20
15156;DHT22;7678;50.058;8.306;2023-06-10T06:53:13;22.70;81.10
15156;DHT22;7678;50.058;8.306;2023-06-10T06:55:49;22.80;83.00
15156;DHT22;7678;50.058;8.306;2023-06-10T06:58:19;22.90;80.10
15156;DHT22;7678;50.058;8.306;2023-06-10T07:00:47;23.00;81.10
15156;DHT22;7678;50.058;8.306;2023-06-10T07:03:15;23.00;80.50
15156;DHT22;7678;50.058;8.306;2023-06-10T07:05:43;23.10;82.00
15156;DHT22;7678;50.058;8.306;2023-06-10T07:08:17;23.10;82.00
15156;DHT22;7678;50.058;8.306;2023-06-10T07:10:51;23.10;82.50
15156;DHT22;7678;50.058;8.306;2023-06-10T07:13:21;23.20;80.10
15156;DHT22;7678;50.058;8.306;2023-06-10T07:15:49;23.20;78.80
15156;DHT22;7678;50.058;8.306;2023-06-10T07:18:20;23.20;79.40
15156;DHT22;7678;50.058;8.306;2023-06-10T07:20:49;23.30;79.60
15156;DHT22;7678;50.058;8.306;2023-06-10T07:23:17;23.30;79.60
15156;DHT22;7678;50.058;8.306;2023-06-10T07:25:45;23.20;79.60
15156;DHT22;7678;50.058;8.306;2023-06-10T07:28:15;23.30;79.00
15156;DHT22;7678;50.058;8.306;2023-06-10T07:30:45;23.50;77.80
15156;DHT22;7678;50.058;8.306;2023-06-10T07:33:14;23.30;79.10
15156;DHT22;7678;50.058;8.306;2023-06-10T07:35:44;23.30;77.50
15156;DHT22;7678;50.058;8.306;2023-06-10T07:38:17;23.40;79.80
15156;DHT22;7678;50.058;8.306;2023-06-10T07:40:47;23.70;78.50
15156;DHT22;7678;50.058;8.306;2023-06-10T07:43:16;23.80;78.10
15156;DHT22;7678;50.058;8.306;2023-06-10T07:45:47;23.80;78.00
15156;DHT22;7678;50.058;8.306;2023-06-10T07:48:18;23.80;76.90
15156;DHT22;7678;50.058;8.306;2023-06-10T07:50:46;23.70;77.70
15156;DHT22;7678;50.058;8.306;2023-06-10T07:53:14;23.90;78.20
15156;DHT22;7678;50.058;8.306;2023-06-10T07:55:42;23.90;79.50
15156;DHT22;7678;50.058;8.306;2023-06-10T07:58:10;23.90;77.80
15156;DHT22;7678;50.058;8.306;2023-06-10T08:00:39;23.90;77.80
15156;DHT22;7678;50.058;8.306;2023-06-10T08:03:07;23.80;76.50
15156;DHT22;7678;50.058;8.306;2023-06-10T08:05:35;24.10;78.60
15156;DHT22;7678;50.058;8.306;2023-06-10T08:08:04;24.00;77.60
15156;DHT22;7678;50.058;8.306;2023-06-10T08:10:32;24.00;77.60
15156;DHT22;7678;50.058;8.306;2023-06-10T08:13:00;24.10;78.50
15156;DHT22;7678;50.058;8.306;2023-06-10T08:15:28;24.30;77.30
15156;DHT22;7678;50.058;8.306;2023-06-10T08:17:58;24.40;77.80
15156;DHT22;7678;50.058;8.306;2023-06-10T08:20:26;24.40;77.90
15156;DHT22;7678;50.058;8.306;2023-06-10T08:22:54;24.40;77.80
15156;DHT22;7678;50.058;8.306;2023-06-10T08:25:24;24.60;78.80
15156;DHT22;7678;50.058;8.306;2023-06-10T08:27:53;24.60;76.50
15156;DHT22;7678;50.058;8.306;2023-06-10T08:30:23;24.60;76.60
15156;DHT22;7678;50.058;8.306;2023-06-10T08:32:51;24.70;77.10
15156;DHT22;7678;50.058;8.306;2023-06-10T08:35:21;24.80;77.20
15156;DHT22;7678;50.058;8.306;2023-06-10T08:37:51;24.70;75.30
15156;DHT22;7678;50.058;8.306;2023-06-10T08:40:20;24.80;76.90
15156;DHT22;7678;50.058;8.306;2023-06-10T08:43:01;25.00;76.40
15156;DHT22;7678;50.058;8.306;2023-06-10T08:45:31;24.80;75.50
15156;DHT22;7678;50.058;8.306;2023-06-10T08:48:03;24.80;76.20
15156;DHT22;7678;50.058;8.306;2023-06-10T08:50:36;24.90;75.70
15156;DHT22;7678;50.058;8.306;2023-06-10T08:53:05;25.00;77.10
15156;DHT22;7678;50.058;8.306;2023-06-10T08:55:37;24.90;75.60
15156;DHT22;7678;50.058;8.306;2023-06-10T08:58:06;25.10;76.20
15156;DHT22;7678;50.058;8.306;2023-06-10T09:00:37;25.20;75.30
15156;DHT22;7678;50.058;8.306;2023-06-10T09:03:05;25.20;73.30
15156;DHT22;7678;50.058;8.306;2023-06-10T09:05:38;25.40;72.50
15156;DHT22;7678;50.058;8.306;2023-06-10T09:08:07;25.40;73.70
15156;DHT22;7678;50.058;8.306;2023-06-10T09:10:36;25.30;72.40
15156;DHT22;7678;50.058;8.306;2023-06-10T09:13:04;25.40;72.00
15156;DHT22;7678;50.058;8.306;2023-06-10T09:15:33;25.40;71.40
15156;DHT22;7678;50.058;8.306;2023-06-10T09:18:01;25.50;71.50
15156;DHT22;7678;50.058;8.306;2023-06-10T09:20:33;25.50;71.70
15156;DHT22;7678;50.058;8.306;2023-06-10T09:23:03;25.60;71.50
15156;DHT22;7678;50.058;8.306;2023-06-10T09:25:35;25.50;72.40
15156;DHT22;7678;50.058;8.306;2023-06-10T09:28:13;25.70;72.70
15156;DHT22;7678;50.058;8.306;2023-06-10T09:30:41;25.60;72.90
15156;DHT22;7678;50.058;8.306;2023-06-10T09:33:11;25.80;72.30
15156;DHT22;7678;50.058;8.306;2023-06-10T09:35:47;25.90;73.70
15156;DHT22;7678;50.058;8.306;2023-06-10T09:38:20;25.90;71.70
15156;DHT22;7678;50.058;8.306;2023-06-10T09:40:50;25.90;72.00
15156;DHT22;7678;50.058;8.306;2023-06-10T09:43:18;26.30;71.70
15156;DHT22;7678;50.058;8.306;2023-06-10T09:45:48;26.10;70.50
15156;DHT22;7678;50.058;8.306;2023-06-10T09:48:16;25.90;70.80
15156;DHT22;7678;50.058;8.306;2023-06-10T09:50:45;26.30;70.50
15156;DHT22;7678;50.058;8.306;2023-06-10T09:53:14;26.20;71.60
15156;DHT22;7678;50.058;8.306;2023-06-10T09:55:46;26.20;70.80
15156;DHT22;7678;50.058;8.306;2023-06-10T09:58:14;26.00;72.00
15156;DHT22;7678;50.058;8.306;2023-06-10T10:00:43;26.10;71.70
15156;DHT22;7678;50.058;8.306;2023-06-10T10:03:22;26.60;71.10
15156;DHT22;7678;50.058;8.306;2023-06-10T10:05:57;26.40;71.10
15156;DHT22;7678;50.058;8.306;2023-06-10T10:08:28;26.40;72.40
15156;DHT22;7678;50.058;8.306;2023-06-10T10:10:58;26.50;70.70
15156;DHT22;7678;50.058;8.306;2023-06-10T10:13:33;26.50;71.20
15156;DHT22;7678;50.058;8.306;2023-06-10T10:16:06;26.40;70.30
15156;DHT22;7678;50.058;8.306;2023-06-10T10:18:40;26.60;70.70
15156;DHT22;7678;50.058;8.306;2023-06-10T10:21:12;26.60;69.40
15156;DHT22;7678;50.058;8.306;2023-06-10T10:23:48;26.60;71.40
15156;DHT22;7678;50.058;8.306;2023-06-10T10:26:21;26.50;70.10
15156;DHT22;7678;50.058;8.306;2023-06-10T10:28:58;26.40;71.30
15156;DHT22;7678;50.058;8.306;2023-06-10T10:31:27;26.50;72.10
15156;DHT22;7678;50.058;8.306;2023-06-10T10:33:59;26.70;70.30
15156;DHT22;7678;50.058;8.306;2023-06-10T10:36:28;26.90;71.40
15156;DHT22;7678;50.058;8.306;2023-06-10T10:38:59;27.20;69.70
15156;DHT22;7678;50.058;8.306;2023-06-10T10:41:38;27.30;70.30
15156;DHT22;7678;50.058;8.306;2023-06-10T10:44:06;27.20;69.70
15156;DHT22;7678;50.058;8.306;2023-06-10T10:46:42;27.10;67.30
15156;DHT22;7678;50.058;8.306;2023-06-10T10:49:13;27.30;68.50
15156;DHT22;7678;50.058;8.306;2023-06-10T10:51:57;27.30;66.30
15156;DHT22;7678;50.058;8.306;2023-06-10T10:54:29;27.40;66.20
15156;DHT22;7678;50.058;8.306;2023-06-10T10:57:12;27.90;66.40
15156;DHT22;7678;50.058;8.306;2023-06-10T11:00:01;27.80;65.60
15156;DHT22;7678;50.058;8.306;2023-06-10T11:02:55;27.70;65.10
15156;DHT22;7678;50.058;8.306;2023-06-10T11:05:49;27.60;65.20
15156;DHT22;7678;50.058;8.306;2023-06-10T11:08:51;27.80;64.80
15156;DHT22;7678;50.058;8.306;2023-06-10T11:14:58;27.80;64.50
15156;DHT22;7678;50.058;8.306;2023-06-10T11:18:15;28.10;64.80
15156;DHT22;7678;50.058;8.306;2023-06-10T11:21:00;27.90;63.30
15156;DHT22;7678;50.058;8.306;2023-06-10T11:23:47;27.40;63.60
15156;DHT22;7678;50.058;8.306;2023-06-10T11:26:29;27.90;63.50
15156;DHT22;7678;50.058;8.306;2023-06-10T11:29:07;28.30;63.40
15156;DHT22;7678;50.058;8.306;2023-06-10T11:31:41;28.40;63.40
15156;DHT22;7678;50.058;8.306;2023-06-10T11:34:10;28.40;61.50
15156;DHT22;7678;50.058;8.306;2023-06-10T11:36:40;28.40;60.20
15156;DHT22;7678;50.058;8.306;2023-06-10T11:39:09;28.30;60.80
15156;DHT22;7678;50.058;8.306;2023-06-10T11:41:39;28.30;61.60
15156;DHT22;7678;50.058;8.306;2023-06-10T11:44:11;28.40;60.30
15156;DHT22;7678;50.058;8.306;2023-06-10T11:46:48;28.40;60.10
15156;DHT22;7678;50.058;8.306;2023-06-10T11:49:17;28.60;60.40
15156;DHT22;7678;50.058;8.306;2023-06-10T11:51:48;28.70;58.70
15156;DHT22;7678;50.058;8.306;2023-06-10T11:54:18;29.10;59.40
15156;DHT22;7678;50.058;8.306;2023-06-10T11:56:57;29.10;57.30
15156;DHT22;7678;50.058;8.306;2023-06-10T11:59:30;29.00;57.60
15156;DHT22;7678;50.058;8.306;2023-06-10T12:02:00;29.20;56.10
15156;DHT22;7678;50.058;8.306;2023-06-10T12:04:28;29.20;57.80
15156;DHT22;7678;50.058;8.306;2023-06-10T12:06:56;29.50;58.50
15156;DHT22;7678;50.058;8.306;2023-06-10T12:09:25;29.60;55.10
15156;DHT22;7678;50.058;8.306;2023-06-10T12:11:57;29.80;56.60
15156;DHT22;7678;50.058;8.306;2023-06-10T12:14:52;29.80;56.60
15156;DHT22;7678;50.058;8.306;2023-06-10T12:17:35;29.90;54.90
15156;DHT22;7678;50.058;8.306;2023-06-10T12:20:06;29.40;55.00
15156;DHT22;7678;50.058;8.306;2023-06-10T12:22:36;29.40;55.30
15156;DHT22;7678;50.058;8.306;2023-06-10T12:25:06;29.60;53.80
15156;DHT22;7678;50.058;8.306;2023-06-10T12:27:36;30.00;53.70
15156;DHT22;7678;50.058;8.306;2023-06-10T12:30:07;30.10;54.00
15156;DHT22;7678;50.058;8.306;2023-06-10T12:32:38;30.60;53.70
15156;DHT22;7678;50.058;8.306;2023-06-10T12:35:09;30.10;51.70
15156;DHT22;7678;50.058;8.306;2023-06-10T12:37:41;30.30;51.30
15156;DHT22;7678;50.058;8.306;2023-06-10T12:40:13;30.30;51.20
15156;DHT22;7678;50.058;8.306;2023-06-10T12:42:41;30.30;51.20
15156;DHT22;7678;50.058;8.306;2023-06-10T12:45:09;30.60;52.40
15156;DHT22;7678;50.058;8.306;2023-06-10T12:47:43;30.50;51.20
15156;DHT22;7678;50.058;8.306;2023-06-10T12:50:11;30.30;51.70
15156;DHT22;7678;50.058;8.306;2023-06-10T12:52:40;30.20;52.30
15156;DHT22;7678;50.058;8.306;2023-06-10T12:55:09;30.50;51.10
15156;DHT22;7678;50.058;8.306;2023-06-10T12:57:47;30.70;52.50
15156;DHT22;7678;50.058;8.306;2023-06-10T13:00:17;30.40;51.90
15156;DHT22;7678;50.058;8.306;2023-06-10T13:02:48;30.70;51.90
15156;DHT22;7678;50.058;8.306;2023-06-10T13:05:19;30.40;50.60
15156;DHT22;7678;50.058;8.306;2023-06-10T13:07:48;30.50;51.70
15156;DHT22;7678;50.058;8.306;2023-06-10T13:10:17;30.70;50.70
15156;DHT22;7678;50.058;8.306;2023-06-10T13:12:51;30.90;51.30
15156;DHT22;7678;50.058;8.306;2023-06-10T13:15:19;30.80;50.30
15156;DHT22;7678;50.058;8.306;2023-06-10T13:17:48;30.90;51.10
15156;DHT22;7678;50.058;8.306;2023-06-10T13:20:18;31.00;51.00
15156;DHT22;7678;50.058;8.306;2023-06-10T13:22:50;31.10;49.50
15156;DHT22;7678;50.058;8.306;2023-06-10T13:25:18;31.30;51.20
15156;DHT22;7678;50.058;8.306;2023-06-10T13:27:48;31.50;50.70
15156;DHT22;7678;50.058;8.306;2023-06-10T13:30:16;31.30;50.20
15156;DHT22;7678;50.058;8.306;2023-06-10T13:32:44;31.30;51.20
15156;DHT22;7678;50.058;8.306;2023-06-10T13:35:14;31.30;49.80
15156;DHT22;7678;50.058;8.306;2023-06-10T13:37:45;31.10;52.70
15156;DHT22;7678;50.058;8.306;2023-06-10T13:40:13;31.20;50.50
15156;DHT22;7678;50.058;8.306;2023-06-10T13:42:41;30.80;50.40
15156;DHT22;7678;50.058;8.306;2023-06-10T13:45:09;30.10;51.50
15156;DHT22;7678;50.058;8.306;2023-06-10T13:47:38;30.10;51.50
15156;DHT22;7678;50.058;8.306;2023-06-10T13:50:07;30.00;52.80
15156;DHT22;7678;50.058;8.306;2023-06-10T13:52:37;30.10;52.50
15156;DHT22;7678;50.058;8.306;2023-06-10T13:55:05;30.00;51.50
15156;DHT22;7678;50.058;8.306;2023-06-10T13:57:34;30.00;50.70
15156;DHT22;7678;50.058;8.306;2023-06-10T14:00:05;30.00;52.30
15156;DHT22;7678;50.058;8.306;2023-06-10T14:02:33;29.90;53.00
15156;DHT22;7678;50.058;8.306;2023-06-10T14:05:01;30.00;52.50
15156;DHT22;7678;50.058;8.306;2023-06-10T14:07:31;30.00;51.30
15156;DHT22;7678;50.058;8.306;2023-06-10T14:10:01;30.00;51.90
15156;DHT22;7678;50.058;8.306;2023-06-10T14:12:29;29.80;52.20
15156;DHT22;7678;50.058;8.306;2023-06-10T14:14:57;29.70;53.40
15156;DHT22;7678;50.058;8.306;2023-06-10T14:17:25;29.60;52.00
15156;DHT22;7678;50.058;8.306;2023-06-10T14:19:53;30.40;52.30
15156;DHT22;7678;50.058;8.306;2023-06-10T14:22:21;30.50;50.20
15156;DHT22;7678;50.058;8.306;2023-06-10T14:24:49;31.00;49.40
15156;DHT22;7678;50.058;8.306;2023-06-10T14:27:22;31.10;48.50
15156;DHT22;7678;50.058;8.306;2023-06-10T14:29:50;31.40;50.20
15156;DHT22;7678;50.058;8.306;2023-06-10T14:32:18;31.10;50.30
15156;DHT22;7678;50.058;8.306;2023-06-10T14:34:49;30.40;50.70
15156;DHT22;7678;50.058;8.306;2023-06-10T14:37:17;29.80;51.50
15156;DHT22;7678;50.058;8.306;2023-06-10T14:39:45;29.70;52.00
15156;DHT22;7678;50.058;8.306;2023-06-10T14:42:13;29.70;53.70
15156;DHT22;7678;50.058;8.306;2023-06-10T14:44:43;29.30;54.00
15156;DHT22;7678;50.058;8.306;2023-06-10T14:47:11;29.40;53.90
15156;DHT22;7678;50.058;8.306;2023-06-10T14:49:39;29.20;53.40
15156;DHT22;7678;50.058;8.306;2023-06-10T14:52:08;29.20;54.20
15156;DHT22;7678;50.058;8.306;2023-06-10T14:54:36;29.20;52.80
15156;DHT22;7678;50.058;8.306;2023-06-10T14:57:07;28.80;53.20
15156;DHT22;7678;50.058;8.306;2023-06-10T14:59:35;28.80;53.30
15156;DHT22;7678;50.058;8.306;2023-06-10T15:02:05;29.50;52.50
15156;DHT22;7678;50.058;8.306;2023-06-10T15:04:33;30.40;53.10
15156;DHT22;7678;50.058;8.306;2023-06-10T15:07:01;30.80;53.30
15156;DHT22;7678;50.058;8.306;2023-06-10T15:09:29;30.80;50.60
15156;DHT22;7678;50.058;8.306;2023-06-10T15:12:03;30.90;51.60
15156;DHT22;7678;50.058;8.306;2023-06-10T15:14:32;31.00;49.80
15156;DHT22;7678;50.058;8.306;2023-06-10T15:17:00;31.00;49.50
15156;DHT22;7678;50.058;8.306;2023-06-10T15:19:30;31.20;48.90
15156;DHT22;7678;50.058;8.306;2023-06-10T15:22:00;31.40;48.70
15156;DHT22;7678;50.058;8.306;2023-06-10T15:24:28;31.30;49.30
15156;DHT22;7678;50.058;8.306;2023-06-10T15:26:58;31.30;49.40
15156;DHT22;7678;50.058;8.306;2023-06-10T15:29:27;31.10;49.60
15156;DHT22;7678;50.058;8.306;2023-06-10T15:31:55;31.10;50.60
15156;DHT22;7678;50.058;8.306;2023-06-10T15:34:23;31.50;47.80
15156;DHT22;7678;50.058;8.306;2023-06-10T15:36:53;31.20;48.70
15156;DHT22;7678;50.058;8.306;2023-06-10T15:39:23;31.30;49.90
15156;DHT22;7678;50.058;8.306;2023-06-10T15:42:09;31.80;48.90
15156;DHT22;7678;50.058;8.306;2023-06-10T15:44:41;31.90;48.00
15156;DHT22;7678;50.058;8.306;2023-06-10T15:47:20;32.10;48.40
15156;DHT22;7678;50.058;8.306;2023-06-10T15:49:48;32.00;47.30
15156;DHT22;7678;50.058;8.306;2023-06-10T15:52:18;32.00;47.70
15156;DHT22;7678;50.058;8.306;2023-06-10T15:54:48;31.60;48.10
15156;DHT22;7678;50.058;8.306;2023-06-10T15:57:17;31.80;49.00
15156;DHT22;7678;50.058;8.306;2023-06-10T15:59:47;32.20;47.70
15156;DHT22;7678;50.058;8.306;2023-06-10T16:02:17;32.30;46.90
15156;DHT22;7678;50.058;8.306;2023-06-10T16:04:50;32.20;47.00
15156;DHT22;7678;50.058;8.306;2023-06-10T16:07:20;32.30;47.20
15156;DHT22;7678;50.058;8.306;2023-06-10T16:09:48;32.40;46.50
15156;DHT22;7678;50.058;8.306;2023-06-10T16:12:17;32.50;47.40
15156;DHT22;7678;50.058;8.306;2023-06-10T16:14:45;32.10;46.70
15156;DHT22;7678;50.058;8.306;2023-06-10T16:17:13;32.00;47.40
15156;DHT22;7678;50.058;8.306;2023-06-10T16:19:41;32.70;46.80
15156;DHT22;7678;50.058;8.306;2023-06-10T16:22:09;32.40;45.90
15156;DHT22;7678;50.058;8.306;2023-06-10T16:24:39;32.20;46.70
15156;DHT22;7678;50.058;8.306;2023-06-10T16:27:09;32.30;47.20
15156;DHT22;7678;50.058;8.306;2023-06-10T16:29:38;32.10;46.40
15156;DHT22;7678;50.058;8.306;2023-06-10T16:32:14;32.10;47.30